createdAt,value
2018-10-21T00:02:13.741Z,8.3
2018-10-21T00:07:16.137Z,8.3
2018-10-21T00:12:18.579Z,8.3
2018-10-21T00:17:21.032Z,8.3
2018-10-21T00:22:23.452Z,8.3
2018-10-21T00:27:25.897Z,8.3
2018-10-21T00:32:28.354Z,8.4
2018-10-21T00:37:30.832Z,8.4
2018-10-21T00:42:33.212Z,8.3
2018-10-21T00:47:35.660Z,8.4
2018-10-21T00:52:38.088Z,8.3
2018-10-21T00:57:40.584Z,8.4
2018-10-21T01:02:43.109Z,8.4
2018-10-21T01:07:45.411Z,8.4
2018-10-21T01:12:47.854Z,8.3
2018-10-21T01:17:50.305Z,8.3
2018-10-21T01:22:52.734Z,8.3
2018-10-21T01:27:55.181Z,8.3
2018-10-21T01:32:57.670Z,8.3
2018-10-21T01:38:00.140Z,8.3
2018-10-21T01:43:02.505Z,8.3
2018-10-21T01:48:05.028Z,8.3
2018-10-21T01:53:07.371Z,8.3
2018-10-21T01:58:09.812Z,8.3
2018-10-21T02:03:12.392Z,8.2
2018-10-21T02:08:14.697Z,8.2
2018-10-21T02:13:17.147Z,8.2
2018-10-21T02:18:19.577Z,8.3
2018-10-21T02:23:22.021Z,8.2
2018-10-21T02:28:24.452Z,8.2
2018-10-21T02:33:27.051Z,8.2
2018-10-21T02:38:29.347Z,8.2
2018-10-21T02:43:31.800Z,8.2
2018-10-21T02:48:34.216Z,8.2
2018-10-21T02:58:39.112Z,8.2
2018-10-21T03:03:41.546Z,8.2
2018-10-21T03:08:44.088Z,8.1
2018-10-21T03:13:46.416Z,8.1
2018-10-21T03:18:48.878Z,8.1
2018-10-21T03:23:51.286Z,8
2018-10-21T03:28:53.727Z,8
2018-10-21T03:33:56.428Z,8
2018-10-21T03:38:58.718Z,8
2018-10-21T03:44:01.052Z,8.1
2018-10-21T03:49:03.503Z,8.1
2018-10-21T03:54:05.973Z,8.1
2018-10-21T03:59:08.557Z,8
2018-10-21T04:04:10.949Z,8
2018-10-21T04:09:13.381Z,8
2018-10-21T04:14:15.771Z,7.9
2018-10-21T04:19:18.151Z,7.9
2018-10-21T04:24:20.596Z,7.9
2018-10-21T04:29:23.048Z,7.9
2018-10-21T04:34:25.518Z,7.9
2018-10-21T04:39:27.890Z,7.9
2018-10-21T04:44:30.339Z,7.9
2018-10-21T04:49:32.786Z,7.9
2018-10-21T04:54:35.235Z,7.9
2018-10-21T04:59:37.709Z,7.9
2018-10-21T05:04:40.098Z,7.8
2018-10-21T05:09:42.533Z,7.8
2018-10-21T05:14:44.976Z,7.7
2018-10-21T05:19:47.432Z,7.7
2018-10-21T05:24:49.857Z,7.7
2018-10-21T05:29:52.320Z,7.7
2018-10-21T05:34:54.785Z,7.7
2018-10-21T05:39:57.190Z,7.7
2018-10-21T05:44:59.610Z,7.7
2018-10-21T05:50:02.124Z,7.7
2018-10-21T05:55:04.520Z,7.7
2018-10-21T06:00:07.013Z,7.7
2018-10-21T06:05:09.404Z,7.7
2018-10-21T06:10:11.858Z,7.7
2018-10-21T06:15:14.249Z,7.8
2018-10-21T06:20:16.709Z,7.8
2018-10-21T06:25:19.136Z,7.8
2018-10-21T06:30:21.597Z,7.8
2018-10-21T06:35:24.030Z,7.9
2018-10-21T06:40:26.459Z,7.9
2018-10-21T06:45:28.963Z,7.9
2018-10-21T06:50:31.400Z,7.9
2018-10-21T06:55:33.771Z,7.9
2018-10-21T07:00:36.211Z,7.9
2018-10-21T07:05:38.664Z,7.9
2018-10-21T07:10:41.094Z,7.9
2018-10-21T07:15:43.577Z,7.9
2018-10-21T07:20:45.982Z,8
2018-10-21T07:25:48.414Z,8.1
2018-10-21T07:30:50.856Z,8.3
2018-10-21T07:35:53.390Z,8.3
2018-10-21T07:40:55.735Z,8.3
2018-10-21T07:45:58.218Z,8.3
2018-10-21T07:51:00.670Z,8.4
2018-10-21T07:56:03.053Z,8.5
2018-10-21T08:01:05.539Z,8.6
2018-10-21T08:06:07.949Z,8.7
2018-10-21T08:11:10.399Z,8.8
2018-10-21T08:16:12.890Z,8.9
2018-10-21T08:21:15.380Z,8.9
2018-10-21T08:26:17.720Z,9
2018-10-21T08:31:20.131Z,9.1
2018-10-21T08:36:22.610Z,9.3
2018-10-21T08:41:25.017Z,9.5
2018-10-21T08:46:27.681Z,9.6
2018-10-21T08:51:29.930Z,9.7
2018-10-21T08:56:32.346Z,9.7
2018-10-21T09:01:34.803Z,9.5
2018-10-21T09:06:37.218Z,9.4
2018-10-21T09:11:39.644Z,9.3
2018-10-21T09:16:42.285Z,9.3
2018-10-21T09:21:44.616Z,9.4
2018-10-21T09:26:47.117Z,9.6
2018-10-21T09:31:49.417Z,9.8
2018-10-21T09:36:51.860Z,9.9
2018-10-21T09:41:54.286Z,10
2018-10-21T09:46:56.738Z,10.1
2018-10-21T09:51:59.246Z,10.5
2018-10-21T09:57:01.621Z,10.9
2018-10-21T10:02:04.048Z,11
2018-10-21T10:07:06.506Z,10.9
2018-10-21T10:12:08.968Z,10.9
2018-10-21T10:17:11.381Z,11
2018-10-21T10:22:13.893Z,11.2
2018-10-21T10:27:16.264Z,11.6
2018-10-21T10:32:18.689Z,11.9
2018-10-21T10:37:21.139Z,12.5
2018-10-21T10:42:23.767Z,13.1
2018-10-21T10:47:26.025Z,13.5
2018-10-21T10:52:28.483Z,13.3
2018-10-21T10:57:30.913Z,12.5
2018-10-21T11:02:33.334Z,11.9
2018-10-21T11:07:35.784Z,11.5
2018-10-21T11:12:38.238Z,11.3
2018-10-21T11:17:40.681Z,11.2
2018-10-21T11:22:43.241Z,11
2018-10-21T11:27:45.548Z,11.4
2018-10-21T11:32:47.977Z,11.3
2018-10-21T11:37:50.517Z,11.3
2018-10-21T11:42:52.880Z,11.4
2018-10-21T11:47:55.320Z,11.4
2018-10-21T11:52:57.779Z,11.6
2018-10-21T11:58:00.222Z,11.6
2018-10-21T12:03:02.632Z,11.8
2018-10-21T12:08:05.075Z,11.9
2018-10-21T12:13:07.509Z,12.9
2018-10-21T12:18:09.956Z,13.6
2018-10-21T12:23:12.552Z,14.7
2018-10-21T12:28:14.906Z,14.6
2018-10-21T12:33:17.269Z,14.1
2018-10-21T12:38:19.700Z,13.8
2018-10-21T12:43:22.150Z,14.4
2018-10-21T12:48:24.594Z,15.6
2018-10-21T12:53:27.040Z,18.7
2018-10-21T12:58:29.476Z,21.3
2018-10-21T13:03:31.930Z,23.3
2018-10-21T13:08:34.381Z,24.6
2018-10-21T13:13:36.822Z,25.6
2018-10-21T13:18:39.243Z,25.7
2018-10-21T13:23:41.698Z,26.1
2018-10-21T13:28:44.188Z,26.6
2018-10-21T13:33:46.572Z,27.2
2018-10-21T13:38:49.022Z,27.7
2018-10-21T13:43:51.460Z,28.1
2018-10-21T13:48:53.935Z,28.5
2018-10-21T13:53:56.349Z,28.8
2018-10-21T13:58:58.827Z,28.7
2018-10-21T14:04:01.302Z,27.4
2018-10-21T14:09:03.668Z,26
2018-10-21T14:14:06.106Z,26.5
2018-10-21T14:19:08.557Z,27.4
2018-10-21T14:24:11.068Z,27.9
2018-10-21T14:29:13.443Z,28.4
2018-10-21T14:34:15.893Z,27.3
2018-10-21T14:39:18.432Z,24.7
2018-10-21T14:44:21.015Z,22.5
2018-10-21T14:49:23.211Z,20.5
2018-10-21T14:54:25.653Z,18.7
2018-10-21T14:59:28.097Z,17.2
2018-10-21T15:04:30.558Z,16
2018-10-21T15:09:32.986Z,15.1
2018-10-21T15:14:35.416Z,14.5
2018-10-21T15:19:37.847Z,14
2018-10-21T15:24:40.317Z,13.6
2018-10-21T15:29:42.843Z,13.2
2018-10-21T15:34:45.299Z,12.9
2018-10-21T15:39:47.750Z,12.6
2018-10-21T15:44:50.058Z,12.4
2018-10-21T15:49:52.526Z,12.2
2018-10-21T15:54:54.940Z,11.9
2018-10-21T15:59:57.373Z,11.7
2018-10-21T16:04:59.808Z,11.4
2018-10-21T16:10:02.329Z,11.2
2018-10-21T16:15:04.697Z,10.9
2018-10-21T16:20:07.196Z,10.7
2018-10-21T16:25:09.572Z,10.5
2018-10-21T16:30:12.015Z,10.3
2018-10-21T16:35:14.597Z,10.1
2018-10-21T16:40:16.949Z,9.9
2018-10-21T16:45:19.529Z,9.7
2018-10-21T16:50:21.769Z,9.6
2018-10-21T16:55:24.222Z,9.5
2018-10-21T17:00:26.825Z,9.4
2018-10-21T17:05:29.168Z,9.3
2018-10-21T17:10:32.058Z,9.2
2018-10-21T17:15:33.987Z,9
2018-10-21T17:20:36.421Z,8.9
2018-10-21T17:25:38.864Z,8.7
2018-10-21T17:30:41.307Z,8.6
2018-10-21T17:35:43.745Z,8.4
2018-10-21T17:40:46.293Z,8.3
2018-10-21T17:45:48.665Z,8.2
2018-10-21T17:50:51.067Z,8.1
2018-10-21T17:55:53.515Z,8
2018-10-21T18:00:55.985Z,7.9
2018-10-21T18:05:58.379Z,7.7
2018-10-21T18:11:00.822Z,7.7
2018-10-21T18:16:03.335Z,7.5
2018-10-21T18:21:05.790Z,7.5
2018-10-21T18:26:08.270Z,7.4
2018-10-21T18:31:10.630Z,7.3
2018-10-21T18:36:13.020Z,7.1
2018-10-21T18:41:15.716Z,7
2018-10-21T18:46:17.963Z,6.9
2018-10-21T18:51:20.364Z,6.7
2018-10-21T18:56:22.785Z,6.7
2018-10-21T19:01:25.215Z,6.7
2018-10-21T19:06:27.687Z,6.6
2018-10-21T19:11:30.093Z,6.6
2018-10-21T19:16:32.534Z,6.5
2018-10-21T19:21:34.994Z,6.4
2018-10-21T19:26:37.449Z,6.3
2018-10-21T19:31:39.864Z,6.2
2018-10-21T19:36:42.303Z,6.1
2018-10-21T19:41:44.774Z,6
2018-10-21T19:46:47.174Z,5.9
2018-10-21T19:51:49.636Z,5.9
2018-10-21T19:56:56.650Z,5.8
2018-10-21T20:01:54.496Z,5.7
2018-10-21T20:06:56.924Z,5.7
2018-10-21T20:11:59.445Z,5.6
2018-10-21T20:17:01.867Z,5.5
2018-10-21T20:22:04.338Z,5.5
2018-10-21T20:27:06.705Z,5.4
2018-10-21T20:32:09.131Z,5.4
2018-10-21T20:37:11.562Z,5.3
2018-10-21T20:42:14.123Z,5.2
2018-10-21T20:47:16.458Z,5.1
2018-10-21T20:52:18.890Z,5
2018-10-21T20:57:21.328Z,5
